Accueil
METAR-TAF:

METAR-TAF

Aéroports :

Aéroport d'Aurillac

Aurillac, France

latitude: 44-53N, longitude: 002-25E, altitude: 639 m

Observation

Le bulletin a été fait il y a 26 minutes, à 18:30 UTC
Vent 4 kt de nord/nord-ouest
Température 7°C
Humidité 61%
Pression 1016 hPa
Visibilité 10 km ou plus
pas de nuages en-dessous de 1500 mètres et pas de cumulonimbus.

METAR: LFLW 081830Z AUTO 33004KT CAVOK 07/M00 Q1016

Heure: 19:56 (18:56 UTC)

Prévision

Le bulletin a été fait il y a 4 heures et 56 minutes, à 14:00 UTC
Prévision valable du 08 à 15 UTC au 08 à 24 UTC
Vent 6 kt de ouest/nord-ouest
Visibilité 10 km ou plus
Quelques nuages à une hauteur de 3500 ft, Cumulus congestus.
Nuages fragmentés à une hauteur de 8000 ft
Evoluant progressivement
du 08 à 16 UTC au 08 à 18 UTC
Nuages épars à une hauteur de 4000 ft

TAF: LFLW 081400Z 0815/0824 30006KT 9999 FEW035TCU BKN080 BECMG 0816/0818 SCT040

Observations et prévisions météorologiques de plus de 4000 aéroports (messages METAR et TAF).

Les stations disponibles sont représentées par des disques jaunes et rouges sur la carte.

Passer la souris dessus pour voir le nom de la station.

Cliquer dessus pour voir les observations et prévisions météorologiques.

Pour changer de carte: cliquez sur les boutons verts avec une croix noire pour zoomer, sur le bouton vert avec un tiret pour effectuer un zoom arrière, ou sur les flèches vertes pour les cartes adjacentes.


METAR-TAF: